Time;durP1;ratioP1;P1;durP2;ratioP2;P2;SDS_P1;SDS_P2;PMS_P1;PMS_P2;Temp;Humidity;BMP_temperature;BMP_pressure;BME280_temperature;BME280_humidity;BME280_pressure;Samples;Min_cycle;Max_cycle;Signal;HPM_P1;HPM_P2
2023/07/09 15:57:20;;;;;;;6.15;2.47;;;;;;;31.68;27.73;101289.44;6181040;22;2442086;-72
2023/07/09 15:59:45;;;;;;;5.63;2.38;;;;;;;31.57;27.48;101290.72;6272910;22;20367;-72
2023/07/09 16:02:14;;;;;;;6.57;2.60;;;;;;;31.46;27.69;101290.03;6273353;22;20785;-72
2023/07/09 16:04:43;;;;;;;6.78;2.88;;;;;;;31.33;27.76;101288.03;6273487;22;20336;-72
2023/07/09 16:07:09;;;;;;;4.50;2.17;;;;;;;31.33;27.81;101283.38;6273621;22;20331;-72
2023/07/09 16:09:35;;;;;;;8.30;2.28;;;;;;;31.42;27.76;101289.81;6273441;22;20799;-73
2023/07/09 16:12:00;;;;;;;9.85;2.85;;;;;;;31.35;27.98;101289.38;6273044;22;20350;-73
2023/07/09 16:14:31;;;;;;;7.07;2.90;;;;;;;31.36;27.83;101285.50;6272968;22;20347;-73
2023/07/09 16:16:58;;;;;;;4.97;2.30;;;;;;;31.37;27.77;101289.88;6273089;22;20343;-73
2023/07/09 16:19:26;;;;;;;8.25;2.50;;;;;;;31.42;27.90;101291.72;6273438;22;20368;-72
2023/07/09 16:21:55;;;;;;;7.50;2.55;;;;;;;31.41;28.19;101285.44;6274612;22;20339;-71
2023/07/09 16:24:35;;;;;;;6.13;2.30;;;;;;;31.32;28.48;101294.63;6276095;22;20335;-72
2023/07/09 16:27:03;;;;;;;5.35;2.30;;;;;;;31.01;28.76;101293.13;6275872;22;20422;-73
2023/07/09 16:29:32;;;;;;;6.40;2.60;;;;;;;31.03;28.54;101287.34;6274777;22;20328;-73
2023/07/09 16:31:59;;;;;;;5.55;2.80;;;;;;;31.01;29.00;101286.84;6275321;22;20358;-73
2023/07/09 16:34:26;;;;;;;5.32;2.58;;;;;;;31.13;29.09;101289.13;6275571;22;20594;-73
2023/07/09 16:36:52;;;;;;;6.82;2.78;;;;;;;31.21;29.02;101288.47;6275822;22;20358;-72
2023/07/09 16:39:42;;;;;;;5.97;2.53;;;;;;;31.23;28.96;101294.47;6275329;22;20665;-72
2023/07/09 16:42:14;;;;;;;8.40;2.90;;;;;;;31.20;28.98;101284.09;6275239;22;20346;-73
2023/07/09 16:44:39;;;;;;;6.60;2.63;;;;;;;31.10;29.35;101287.81;6274524;22;20338;-72
2023/07/09 16:47:16;;;;;;;6.40;2.47;;;;;;;30.80;29.90;101288.97;6275494;22;20332;-71
2023/07/09 16:49:42;;;;;;;7.73;2.47;;;;;;;30.87;30.12;101292.97;6275135;22;20760;-71
2023/07/09 16:52:13;;;;;;;5.03;2.53;;;;;;;30.74;30.17;101298.34;6274949;22;20358;-71
2023/07/09 16:54:39;;;;;;;5.32;2.30;;;;;;;30.63;29.95;101287.53;6275367;22;20340;-70
2023/07/09 16:57:04;;;;;;;7.70;2.60;;;;;;;30.80;30.07;101302.66;6275013;22;20828;-71
2023/07/09 16:59:30;;;;;;;4.40;2.30;;;;;;;30.53;30.44;101306.00;6274455;22;20367;-71
2023/07/09 17:01:56;;;;;;;6.22;2.50;;;;;;;30.72;30.06;101303.28;6275186;22;20347;-72
2023/07/09 17:04:30;;;;;;;6.33;2.30;;;;;;;30.72;30.03;101300.56;6274586;22;20669;-72
2023/07/09 17:06:56;;;;;;;7.32;2.50;;;;;;;30.65;30.29;101290.00;6274995;22;20366;-70
2023/07/09 17:09:22;;;;;;;5.93;2.42;;;;;;;30.69;30.25;101299.25;6274976;22;20339;-71
2023/07/09 17:11:57;;;;;;;7.75;2.70;;;;;;;30.71;30.18;101297.03;6274914;22;20378;-71
2023/07/09 17:14:23;;;;;;;7.03;2.60;;;;;;;30.66;30.35;101306.09;6274914;22;20347;-75
2023/07/09 17:16:49;;;;;;;7.13;2.92;;;;;;;30.60;30.55;101304.53;6274629;22;20328;-71
2023/07/09 17:19:14;;;;;;;7.70;2.60;;;;;;;30.41;30.85;101304.44;6273962;22;20367;-71
2023/07/09 17:21:44;;;;;;;7.32;2.63;;;;;;;30.41;30.77;101307.19;6274732;22;20344;-71
2023/07/09 17:24:27;;;;;;;9.57;2.90;;;;;;;30.40;30.95;101312.97;6275097;22;20397;-71
2023/07/09 17:26:54;;;;;;;6.35;2.70;;;;;;;30.39;30.67;101314.88;6275668;22;20331;-72
2023/07/09 17:29:20;;;;;;;6.72;2.70;;;;;;;30.33;30.88;101309.72;6275266;22;20343;-72
2023/07/09 17:31:47;;;;;;;5.68;2.72;;;;;;;30.24;30.85;101306.81;6274711;22;20335;-72
2023/07/09 17:34:14;;;;;;;7.47;2.78;;;;;;;30.13;30.91;101299.81;6274839;22;20339;-72
2023/07/09 17:36:41;;;;;;;6.50;2.88;;;;;;;30.15;31.00;101309.34;6274834;22;20367;-71
2023/07/09 17:39:21;;;;;;;8.48;3.35;;;;;;;29.98;31.16;101308.94;6274573;22;20367;-71
2023/07/09 17:41:48;;;;;;;6.80;3.00;;;;;;;29.86;31.37;101309.31;6274359;22;20351;-71
2023/07/09 17:44:19;;;;;;;8.60;2.80;;;;;;;29.76;31.66;101317.59;6274712;22;20393;-71
2023/07/09 17:46:45;;;;;;;6.93;2.55;;;;;;;29.67;31.67;101306.41;6274600;22;20335;-71
2023/07/09 17:49:31;;;;;;;9.00;2.72;;;;;;;29.72;31.33;101314.59;6274553;22;20343;-71
2023/07/09 17:51:57;;;;;;;7.13;2.80;;;;;;;29.76;31.58;101320.31;6274539;22;20350;-71
2023/07/09 17:54:25;;;;;;;6.20;2.47;;;;;;;29.62;31.75;101315.50;6274615;22;20347;-71
2023/07/09 17:56:55;;;;;;;6.40;2.55;;;;;;;29.33;32.12;101316.22;6274012;22;20382;-72
2023/07/09 17:59:23;;;;;;;7.30;2.90;;;;;;;29.30;32.18;101321.41;6274398;22;20374;-71
2023/07/09 18:02:04;;;;;;;7.95;2.80;;;;;;;29.32;32.10;101320.03;6274451;22;20336;-71
2023/07/09 18:04:30;;;;;;;6.18;2.50;;;;;;;29.35;32.07;101321.38;6274744;22;20332;-71
2023/07/09 18:06:57;;;;;;;5.53;2.45;;;;;;;29.28;32.27;101318.97;6274564;22;20340;-72
2023/07/09 18:09:22;;;;;;;6.43;2.90;;;;;;;29.28;32.26;101324.44;6274516;22;20340;-71
2023/07/09 18:11:52;;;;;;;8.75;2.97;;;;;;;29.21;32.39;101334.00;6273978;22;20397;-72
2023/07/09 18:14:33;;;;;;;9.07;2.92;;;;;;;29.17;32.44;101333.75;6274275;22;20353;-71
2023/07/09 18:16:59;;;;;;;10.07;2.85;;;;;;;29.12;32.68;101333.75;6274290;22;20335;-71
2023/07/09 18:19:26;;;;;;;8.45;2.72;;;;;;;29.03;32.88;101336.25;6274184;22;20371;-71
2023/07/09 18:21:58;;;;;;;8.52;3.03;;;;;;;29.01;33.02;101338.44;6274532;22;20370;-71
2023/07/09 18:24:24;;;;;;;7.88;2.70;;;;;;;28.98;32.92;101328.88;6274597;22;20339;-72
2023/07/09 18:26:49;;;;;;;7.13;2.88;;;;;;;29.02;32.80;101340.06;6273864;22;20650;-72
2023/07/09 18:29:25;;;;;;;9.30;3.13;;;;;;;28.95;32.93;101337.63;6274160;22;20385;-71
2023/07/09 18:31:50;;;;;;;7.60;2.80;;;;;;;28.89;33.32;101340.66;6274000;22;20335;-71
2023/07/09 18:34:16;;;;;;;8.87;2.80;;;;;;;28.79;33.22;101344.22;6274311;22;20422;-71
2023/07/09 18:36:41;;;;;;;5.73;2.60;;;;;;;28.75;33.47;101343.16;6274156;22;20772;-71
2023/07/09 18:39:07;;;;;;;9.67;3.10;;;;;;;28.65;33.78;101356.81;6274144;22;20850;-71
2023/07/09 18:41:32;;;;;;;8.30;3.10;;;;;;;28.54;33.91;101358.75;6273713;22;20362;-72
2023/07/09 18:43:58;;;;;;;5.60;2.40;;;;;;;28.42;34.10;101357.09;6273901;22;20335;-72
2023/07/09 18:46:23;;;;;;;8.05;3.00;;;;;;;28.36;34.22;101357.38;6273931;22;20340;-72
2023/07/09 18:48:49;;;;;;;8.23;2.67;;;;;;;28.37;34.03;101368.00;6274133;22;20331;-72
2023/07/09 18:51:15;;;;;;;5.83;2.67;;;;;;;28.32;34.53;101368.00;6274030;22;20414;-71
2023/07/09 18:53:42;;;;;;;6.60;2.80;;;;;;;28.31;34.43;101371.03;6274036;22;20332;-72
2023/07/09 18:56:07;;;;;;;6.63;2.70;;;;;;;28.25;34.38;101362.00;6273832;22;20811;-71
2023/07/09 18:58:35;;;;;;;8.82;2.78;;;;;;;28.21;34.44;101372.66;6274578;22;20423;-71
2023/07/09 19:01:05;;;;;;;5.40;2.58;;;;;;;28.21;34.63;101369.13;6274011;22;20359;-72
2023/07/09 19:03:35;;;;;;;7.13;2.60;;;;;;;28.17;34.90;101374.28;6274135;22;20688;-71
2023/07/09 19:06:00;;;;;;;6.18;2.60;;;;;;;27.99;34.63;101375.66;6273019;22;20336;-72
2023/07/09 19:08:28;;;;;;;7.77;2.40;;;;;;;28.00;34.81;101374.56;6272879;22;20378;-71
2023/07/09 19:10:54;;;;;;;9.63;2.90;;;;;;;27.93;34.95;101378.63;6273571;22;20705;-71
2023/07/09 19:13:21;;;;;;;7.03;2.30;;;;;;;27.88;34.80;101370.44;6273967;22;20339;-71
2023/07/09 19:15:48;;;;;;;8.10;2.83;;;;;;;27.85;34.79;101378.03;6273551;22;20622;-71
2023/07/09 19:18:26;;;;;;;7.03;2.67;;;;;;;27.82;34.46;101378.59;6273968;22;20332;-72
2023/07/09 19:20:54;;;;;;;7.10;2.90;;;;;;;27.73;34.51;101376.66;6273566;22;20454;-71
2023/07/09 19:23:21;;;;;;;7.63;2.50;;;;;;;27.63;34.78;101381.00;6271830;22;20343;-71
2023/07/09 19:25:49;;;;;;;7.25;2.35;;;;;;;27.58;34.62;101375.53;6274206;22;20358;-73
2023/07/09 19:28:15;;;;;;;8.45;2.60;;;;;;;27.46;34.61;101375.78;6273799;22;20343;-70
2023/07/09 19:30:43;;;;;;;7.07;2.60;;;;;;;27.41;34.91;101385.84;6273640;22;20423;-70
2023/07/09 19:33:17;;;;;;;5.75;2.50;;;;;;;27.23;35.08;101377.03;6272251;22;20344;-71
2023/07/09 19:35:43;;;;;;;4.90;2.03;;;;;;;27.11;35.17;101379.16;6275005;22;20415;-73
2023/07/09 19:38:09;;;;;;;5.03;2.40;;;;;;;27.06;35.21;101381.84;6274078;22;20440;-72
2023/07/09 19:40:35;;;;;;;7.03;2.47;;;;;;;26.87;35.45;101387.72;6274062;22;20360;-70
2023/07/09 19:43:00;;;;;;;7.90;2.67;;;;;;;26.81;35.20;101391.50;6273268;22;20849;-71
2023/07/09 19:45:34;;;;;;;6.77;2.63;;;;;;;26.62;35.44;101393.00;6273219;22;20335;-71
2023/07/09 19:48:00;;;;;;;5.95;2.60;;;;;;;26.50;35.64;101387.72;6273353;22;20768;-71
2023/07/09 19:50:28;;;;;;;7.20;3.03;;;;;;;26.46;35.64;101392.03;6273513;22;20413;-70
2023/07/09 19:52:57;;;;;;;7.47;2.63;;;;;;;26.47;35.72;101388.22;6272739;22;20857;-71
2023/07/09 19:55:25;;;;;;;10.52;2.78;;;;;;;26.32;35.58;101388.94;6273286;22;20339;-70
2023/07/09 19:57:52;;;;;;;7.22;2.50;;;;;;;26.22;35.65;101384.25;6273254;22;20710;-70
2023/07/09 20:00:20;;;;;;;7.05;2.83;;;;;;;26.16;35.50;101390.69;6273196;22;20371;-71
2023/07/09 20:02:46;;;;;;;8.60;2.65;;;;;;;26.14;35.76;101401.00;6273563;22;20335;-74
2023/07/09 20:05:23;;;;;;;7.70;2.45;;;;;;;26.10;35.66;101389.03;6273611;22;20335;-70
2023/07/09 20:07:54;;;;;;;8.07;2.88;;;;;;;26.06;35.71;101398.78;6272816;22;20378;-70
2023/07/09 20:10:20;;;;;;;6.57;2.63;;;;;;;26.08;35.80;101394.72;6273926;22;20760;-72
2023/07/09 20:12:49;;;;;;;7.30;2.83;;;;;;;26.08;35.65;101392.00;6275513;22;20350;-70
2023/07/09 20:15:22;;;;;;;7.80;2.70;;;;;;;26.06;35.47;101388.72;6275806;22;20359;-71
2023/07/09 20:17:53;;;;;;;7.93;2.78;;;;;;;25.98;35.62;101400.03;6275280;22;20625;-70
2023/07/09 20:20:19;;;;;;;7.23;2.83;;;;;;;25.96;35.65;101402.19;6275663;22;20435;-70
2023/07/09 20:22:47;;;;;;;5.72;2.22;;;;;;;25.91;35.71;101408.38;6273708;22;20768;-69
2023/07/09 20:25:24;;;;;;;6.97;2.38;;;;;;;25.90;35.52;101401.28;6273123;22;20336;-71
2023/07/09 20:27:51;;;;;;;7.10;2.60;;;;;;;25.83;35.59;101402.59;6273295;22;20342;-70
2023/07/09 20:30:18;;;;;;;7.10;2.60;;;;;;;25.77;35.63;101401.72;6272908;22;20332;-71
2023/07/09 20:32:45;;;;;;;4.93;2.10;;;;;;;25.73;35.65;101406.84;6273198;22;20336;-71
2023/07/09 20:35:20;;;;;;;6.38;2.38;;;;;;;25.66;35.90;101406.22;6273479;22;20335;-70
2023/07/09 20:37:47;;;;;;;6.38;2.70;;;;;;;25.63;35.88;101416.75;6272315;22;20335;-70
2023/07/09 20:40:15;;;;;;;5.90;2.42;;;;;;;25.55;36.07;101408.00;6273317;22;20455;-70
2023/07/09 20:42:41;;;;;;;7.78;2.75;;;;;;;25.54;35.94;101405.53;6273649;22;20346;-70
2023/07/09 20:45:18;;;;;;;6.63;2.58;;;;;;;25.55;35.98;101408.00;6272879;22;20323;-70
2023/07/09 20:47:44;;;;;;;8.05;2.83;;;;;;;25.55;36.02;101416.13;6273638;22;20483;-71
2023/07/09 20:50:13;;;;;;;6.65;2.42;;;;;;;25.53;35.97;101414.72;6272825;22;20993;-71
2023/07/09 20:52:39;;;;;;;6.45;2.53;;;;;;;25.62;35.92;101423.25;6272865;22;20340;-70
2023/07/09 20:55:09;;;;;;;7.07;2.67;;;;;;;25.55;35.91;101412.56;6273142;22;20336;-71
2023/07/09 20:57:35;;;;;;;7.72;2.72;;;;;;;25.58;35.95;101414.78;6273111;22;20371;-70
2023/07/09 21:00:00;;;;;;;7.20;2.63;;;;;;;25.55;35.93;101418.84;6272888;22;20371;-70
2023/07/09 21:02:26;;;;;;;7.70;2.85;;;;;;;25.50;36.06;101415.25;6273117;22;20378;-70
2023/07/09 21:04:54;;;;;;;7.57;2.75;;;;;;;25.44;36.15;101411.63;6272733;22;20369;-70
2023/07/09 21:07:24;;;;;;;8.63;2.67;;;;;;;25.36;36.29;101417.53;6274459;22;20340;-70
2023/07/09 21:09:50;;;;;;;7.20;2.60;;;;;;;25.25;36.38;101421.19;6275715;22;20654;-70
2023/07/09 21:12:17;;;;;;;9.70;2.87;;;;;;;25.21;36.54;101417.28;6275707;22;20353;-71
2023/07/09 21:14:44;;;;;;;6.47;2.50;;;;;;;25.19;36.59;101425.66;6274923;22;20680;-70
2023/07/09 21:17:18;;;;;;;6.97;2.60;;;;;;;25.21;36.64;101426.25;6274945;22;20784;-70
2023/07/09 21:19:44;;;;;;;8.18;2.80;;;;;;;25.06;36.76;101418.69;6274512;22;20378;-70
2023/07/09 21:22:14;;;;;;;6.10;2.47;;;;;;;25.05;36.83;101430.63;6274816;22;20724;-71
2023/07/09 21:24:40;;;;;;;7.80;2.90;;;;;;;25.06;36.92;101432.25;6274817;22;20343;-71
2023/07/09 21:27:06;;;;;;;6.22;2.60;;;;;;;25.05;37.05;101440.66;6274805;22;20428;-72
2023/07/09 21:29:32;;;;;;;7.35;2.70;;;;;;;24.99;37.08;101432.47;6274380;22;20653;-71
2023/07/09 21:32:05;;;;;;;5.85;2.80;;;;;;;25.00;37.02;101444.13;6274735;22;20351;-72
2023/07/09 21:34:33;;;;;;;7.37;2.60;;;;;;;24.91;37.24;101437.47;6271595;22;20412;-72
2023/07/09 21:37:10;;;;;;;5.85;2.53;;;;;;;24.98;37.32;101447.09;6274069;22;20350;-71
2023/07/09 21:39:36;;;;;;;5.00;2.50;;;;;;;24.97;37.21;101447.31;6272299;22;20382;-72
2023/07/09 21:42:02;;;;;;;8.05;2.88;;;;;;;24.96;37.17;101437.56;6273164;22;20343;-71
2023/07/09 21:44:27;;;;;;;6.73;2.73;;;;;;;24.92;37.27;101450.81;6274505;22;20397;-71
2023/07/09 21:46:58;;;;;;;8.17;2.80;;;;;;;24.87;37.37;101447.19;6273289;22;20343;-71
2023/07/09 21:49:28;;;;;;;7.72;2.90;;;;;;;24.84;37.31;101447.69;6273420;22;20423;-70
2023/07/09 21:51:54;;;;;;;7.10;3.00;;;;;;;24.87;37.13;101445.28;6274570;22;20799;-71
2023/07/09 21:54:32;;;;;;;7.38;2.88;;;;;;;24.88;37.09;101443.41;6273916;22;20339;-71
2023/07/09 21:56:59;;;;;;;7.97;2.83;;;;;;;24.88;37.02;101435.25;6274833;22;20372;-71
2023/07/09 21:59:26;;;;;;;7.03;2.70;;;;;;;24.87;37.01;101436.34;6274691;22;20363;-70
2023/07/09 22:01:56;;;;;;;8.77;3.13;;;;;;;24.88;36.96;101438.78;6274373;22;20764;-71
2023/07/09 22:04:30;;;;;;;8.90;3.20;;;;;;;24.87;36.82;101434.44;6272875;22;20335;-71
2023/07/09 22:06:56;;;;;;;7.65;3.05;;;;;;;24.87;36.95;101441.78;6273402;22;20411;-72
2023/07/09 22:09:26;;;;;;;7.72;2.90;;;;;;;24.86;37.09;101442.81;6272775;22;20339;-71
2023/07/09 22:11:54;;;;;;;9.07;2.88;;;;;;;24.85;36.97;101438.47;6274079;22;20417;-71
2023/07/09 22:14:24;;;;;;;8.45;2.95;;;;;;;24.83;36.99;101444.16;6274232;22;20344;-71
2023/07/09 22:16:51;;;;;;;8.05;2.85;;;;;;;24.84;37.10;101453.09;6274625;22;20720;-71
2023/07/09 22:19:19;;;;;;;6.43;2.70;;;;;;;24.85;37.05;101454.72;6274018;22;20378;-71
2023/07/09 22:21:45;;;;;;;8.73;2.97;;;;;;;24.86;37.15;101449.06;6274195;22;20789;-71
2023/07/09 22:24:15;;;;;;;9.15;3.08;;;;;;;24.86;37.14;101456.38;6274195;22;20405;-71
2023/07/09 22:26:42;;;;;;;11.10;3.53;;;;;;;24.80;37.30;101452.78;6274075;22;20799;-71
2023/07/09 22:29:09;;;;;;;8.50;2.80;;;;;;;24.67;37.53;101448.50;6274226;22;20363;-71
2023/07/09 22:31:36;;;;;;;8.85;2.92;;;;;;;24.59;37.69;101448.91;6274168;22;20419;-71
2023/07/09 22:34:08;;;;;;;7.50;2.80;;;;;;;24.56;37.74;101454.81;6273841;22;20343;-71
2023/07/09 22:36:33;;;;;;;10.10;3.28;;;;;;;24.54;37.79;101455.09;6273906;22;20332;-71
2023/07/09 22:38:59;;;;;;;9.47;3.23;;;;;;;24.48;37.84;101450.59;6273936;22;20347;-72
2023/07/09 22:41:24;;;;;;;8.93;2.80;;;;;;;24.43;37.99;101447.78;6274045;22;20418;-71
2023/07/09 22:43:50;;;;;;;7.00;2.83;;;;;;;24.44;38.03;101457.56;6273987;22;20640;-72
2023/07/09 22:46:17;;;;;;;11.97;3.03;;;;;;;24.38;38.14;101456.66;6273630;22;20764;-71
2023/07/09 22:48:46;;;;;;;8.45;3.13;;;;;;;24.28;38.35;101461.09;6273926;22;20393;-71
2023/07/09 22:51:12;;;;;;;7.28;2.60;;;;;;;24.20;38.30;101455.00;6273818;22;20328;-72
2023/07/09 22:53:37;;;;;;;8.70;2.80;;;;;;;24.10;38.54;101459.41;6273694;22;20752;-70
2023/07/09 22:56:03;;;;;;;9.07;3.23;;;;;;;24.08;38.68;101466.97;6272927;22;20383;-70
2023/07/09 22:58:29;;;;;;;7.50;2.70;;;;;;;24.09;38.81;101472.09;6273144;22;20335;-70
2023/07/09 23:01:02;;;;;;;7.40;3.00;;;;;;;23.99;38.90;101463.81;6273020;22;20386;-71
2023/07/09 23:03:36;;;;;;;6.93;2.90;;;;;;;24.00;38.88;101462.72;6273496;22;20336;-71
2023/07/09 23:06:12;;;;;;;7.55;2.83;;;;;;;24.00;39.00;101473.56;6273160;22;20342;-71
2023/07/09 23:08:37;;;;;;;7.25;2.67;;;;;;;23.85;39.62;101471.38;6273192;22;20818;-71
2023/07/09 23:11:11;;;;;;;13.00;3.13;;;;;;;23.77;39.67;101460.88;6273669;22;20332;-71
2023/07/09 23:13:37;;;;;;;7.50;2.78;;;;;;;23.67;40.05;101461.50;6273848;22;20332;-71
2023/07/09 23:16:03;;;;;;;8.17;2.63;;;;;;;23.69;39.99;101462.09;6273263;22;20841;-71
2023/07/09 23:18:28;;;;;;;11.43;3.45;;;;;;;23.59;40.42;101462.72;6273227;22;20468;-71
2023/07/09 23:20:54;;;;;;;7.83;3.00;;;;;;;23.53;40.52;101457.44;6274420;22;20391;-71
2023/07/09 23:23:20;;;;;;;7.37;3.00;;;;;;;23.52;40.51;101472.03;6273716;22;20660;-71
2023/07/09 23:25:46;;;;;;;8.02;3.03;;;;;;;23.44;40.78;101457.81;6273650;22;20371;-71
2023/07/09 23:28:14;;;;;;;5.95;2.83;;;;;;;23.41;40.84;101457.47;6273554;22;20347;-71
2023/07/09 23:30:40;;;;;;;8.17;3.07;;;;;;;23.32;41.32;101454.28;6273047;22;20348;-71
2023/07/09 23:33:28;;;;;;;6.72;3.05;;;;;;;23.31;41.37;101454.53;6273528;22;20397;-71
2023/07/09 23:35:56;;;;;;;8.35;3.28;;;;;;;23.31;41.34;101449.94;6273455;22;20332;-71
2023/07/09 23:38:23;;;;;;;11.68;3.33;;;;;;;23.32;41.29;101457.00;6273424;22;20342;-70
2023/07/09 23:40:48;;;;;;;7.50;3.10;;;;;;;23.34;41.22;101452.16;6273460;22;20374;-71
2023/07/09 23:43:16;;;;;;;7.23;3.00;;;;;;;23.37;41.56;101456.28;6273427;22;20359;-70
2023/07/09 23:45:42;;;;;;;9.67;3.30;;;;;;;23.18;41.62;101459.13;6273112;22;20632;-71
2023/07/09 23:48:24;;;;;;;9.60;3.08;;;;;;;23.08;42.07;101457.03;6273503;22;20335;-70
2023/07/09 23:50:52;;;;;;;7.93;3.00;;;;;;;23.06;42.06;101458.28;6273428;22;20328;-71
2023/07/09 23:53:38;;;;;;;8.95;3.00;;;;;;;22.94;42.27;101462.84;6273456;22;20343;-71
2023/07/09 23:56:11;;;;;;;7.20;2.80;;;;;;;22.90;42.63;101457.06;6272786;22;20399;-71
2023/07/09 23:58:38;;;;;;;8.63;2.90;;;;;;;22.83;42.88;101449.09;6273296;22;20343;-70
